TimeCDT,TemperatureF,Dew PointF,Humidity,Sea Level PressureIn,VisibilityMPH,Wind Direction,Wind SpeedMPH,Gust SpeedMPH,PrecipitationIn,Events,Conditions,WindDirDegrees,DateUTC
12:53 AM,82.0,75.9,82,29.81,10.0,SSE,8.1,-,N/A,,Clear,160,2013-09-21 05:53:00
1:53 AM,82.0,75.9,82,29.80,10.0,South,8.1,-,N/A,,Clear,170,2013-09-21 06:53:00
2:53 AM,82.0,75.9,82,29.78,10.0,South,8.1,-,N/A,,Partly Cloudy,170,2013-09-21 07:53:00
3:31 AM,80.6,75.2,84,29.77,10.0,South,6.9,-,N/A,,Mostly Cloudy,170,2013-09-21 08:31:00
3:53 AM,82.0,75.9,82,29.77,10.0,South,6.9,-,N/A,,Mostly Cloudy,170,2013-09-21 08:53:00
4:00 AM,82.4,75.2,79,29.77,10.0,South,5.8,-,N/A,,Scattered Clouds,170,2013-09-21 09:00:00
4:53 AM,82.0,75.9,82,29.78,10.0,SSW,3.5,-,0.00,Rain,Light Rain,200,2013-09-21 09:53:00
5:53 AM,80.1,77.0,90,29.77,10.0,Calm,Calm,-,0.01,Rain,Light Rain,0,2013-09-21 10:53:00
6:28 AM,80.6,77.0,89,29.79,2.0,SSW,4.6,-,0.16,Rain,Heavy Rain,210,2013-09-21 11:28:00
6:38 AM,78.8,75.2,89,29.79,5.0,SSW,5.8,-,0.19,Rain,Rain,200,2013-09-21 11:38:00
6:53 AM,79.0,75.9,90,29.79,7.0,SSW,3.5,-,0.21,Rain,Light Rain,210,2013-09-21 11:53:00
7:33 AM,78.8,75.2,89,29.79,1.5,Variable,4.6,-,0.22,Rain,Heavy Rain,0,2013-09-21 12:33:00
7:44 AM,77.0,75.2,94,29.80,3.0,SSW,6.9,16.1,0.25,Rain,Rain,210,2013-09-21 12:44:00
7:53 AM,77.0,73.9,90,29.81,3.0,SSW,6.9,-,0.32,Rain,Heavy Rain,210,2013-09-21 12:53:00
7:57 AM,77.0,73.4,89,29.81,1.8,SW,8.1,-,0.05,Rain,Heavy Rain,230,2013-09-21 12:57:00
8:06 AM,75.2,73.4,94,29.81,2.5,West,3.5,-,0.10,Rain,Rain,260,2013-09-21 13:06:00
8:11 AM,75.2,73.4,94,29.81,2.5,SSW,3.5,-,0.13,Rain,Heavy Rain,200,2013-09-21 13:11:00
8:35 AM,75.2,73.4,94,29.81,3.0,South,4.6,-,0.24,Rain,Rain,190,2013-09-21 13:35:00
8:45 AM,75.2,73.4,94,29.81,2.0,WSW,3.5,-,0.28,Rain,Rain,240,2013-09-21 13:45:00
8:53 AM,75.9,73.9,94,29.82,2.0,Variable,3.5,-,0.32,Rain,Heavy Rain,0,2013-09-21 13:53:00
8:56 AM,75.2,73.4,94,29.81,1.2,SW,3.5,-,0.12,Rain,Heavy Rain,230,2013-09-21 13:56:00
9:04 AM,75.2,73.4,94,29.81,0.8,SW,4.6,-,0.21,Rain,Heavy Rain,230,2013-09-21 14:04:00
9:09 AM,75.2,73.4,94,29.81,1.8,SSW,9.2,-,0.22,Rain,Rain,210,2013-09-21 14:09:00
9:14 AM,75.2,73.4,94,29.82,3.0,SSW,8.1,-,0.23,Rain,Rain,210,2013-09-21 14:14:00
9:31 AM,73.4,71.6,94,29.82,4.0,SSW,8.1,-,0.28,Rain,Rain,200,2013-09-21 14:31:00
9:53 AM,73.0,71.1,93,29.81,4.0,Variable,3.5,-,0.34,Rain,Rain,0,2013-09-21 14:53:00
10:53 AM,75.9,73.0,91,29.80,10.0,South,3.5,-,0.06,Rain,Light Rain,190,2013-09-21 15:53:00
11:30 AM,77.0,73.4,89,29.79,10.0,South,3.5,-,0.01,,Mostly Cloudy,180,2013-09-21 16:30:00
11:41 AM,77.0,73.4,89,29.80,10.0,Calm,Calm,-,0.01,,Mostly Cloudy,0,2013-09-21 16:41:00
11:53 AM,77.0,73.9,90,29.80,10.0,SSW,4.6,-,0.01,Rain,Light Rain,200,2013-09-21 16:53:00
12:03 PM,78.8,73.4,83,29.79,10.0,SSW,3.5,-,0.00,Rain,Light Rain,200,2013-09-21 17:03:00
12:16 PM,77.0,73.4,89,29.79,10.0,SSW,3.5,-,0.00,Rain,Light Rain,200,2013-09-21 17:16:00
12:39 PM,78.8,73.4,83,29.78,10.0,SSW,4.6,-,0.00,,Overcast,200,2013-09-21 17:39:00
12:53 PM,78.1,75.0,90,29.78,10.0,South,6.9,-,0.00,Rain,Light Rain,190,2013-09-21 17:53:00
1:27 PM,77.0,73.4,89,29.77,10.0,SSW,6.9,-,0.01,Rain,Light Rain,210,2013-09-21 18:27:00
1:42 PM,78.8,73.4,83,29.77,10.0,SSW,5.8,-,0.01,Rain,Light Rain,200,2013-09-21 18:42:00
1:53 PM,77.0,73.9,90,29.76,10.0,SSW,3.5,-,0.01,Rain,Light Rain,210,2013-09-21 18:53:00
2:13 PM,78.8,73.4,83,29.76,10.0,South,3.5,-,0.00,Rain,Light Rain,190,2013-09-21 19:13:00
2:34 PM,78.8,73.4,83,29.76,10.0,South,3.5,-,0.00,,Mostly Cloudy,190,2013-09-21 19:34:00
2:49 PM,78.8,73.4,83,29.75,10.0,SSW,5.8,-,0.00,,Overcast,200,2013-09-21 19:49:00
2:53 PM,78.1,73.9,87,29.75,10.0,South,5.8,-,0.00,,Overcast,190,2013-09-21 19:53:00
3:01 PM,78.8,73.4,83,29.75,10.0,South,3.5,-,N/A,,Overcast,190,2013-09-21 20:01:00
3:09 PM,78.8,73.4,83,29.75,10.0,Variable,3.5,-,N/A,,Overcast,0,2013-09-21 20:09:00
3:34 PM,78.8,73.4,83,29.74,10.0,South,3.5,-,N/A,,Overcast,180,2013-09-21 20:34:00
3:53 PM,78.1,73.0,84,29.73,10.0,Calm,Calm,-,N/A,,Overcast,0,2013-09-21 20:53:00
4:33 PM,78.8,73.4,83,29.72,10.0,Calm,Calm,-,N/A,,Mostly Cloudy,0,2013-09-21 21:33:00
4:53 PM,79.0,73.0,82,29.72,10.0,Calm,Calm,-,N/A,,Overcast,0,2013-09-21 21:53:00
5:02 PM,78.8,73.4,83,29.71,10.0,Calm,Calm,-,N/A,,Mostly Cloudy,0,2013-09-21 22:02:00
5:24 PM,78.8,73.4,83,29.72,10.0,Calm,Calm,-,N/A,,Partly Cloudy,0,2013-09-21 22:24:00
5:53 PM,78.1,73.9,87,29.72,10.0,Calm,Calm,-,N/A,,Clear,0,2013-09-21 22:53:00
6:53 PM,78.1,73.9,87,29.74,10.0,Calm,Calm,-,N/A,,Mostly Cloudy,0,2013-09-21 23:53:00
7:53 PM,77.0,73.9,90,29.74,10.0,Calm,Calm,-,N/A,,Overcast,0,2013-09-22 00:53:00
8:07 PM,77.0,73.4,89,29.74,10.0,Calm,Calm,-,N/A,,Overcast,0,2013-09-22 01:07:00
8:16 PM,75.2,71.6,89,29.75,10.0,NNE,8.1,-,N/A,,Overcast,20,2013-09-22 01:16:00
8:25 PM,75.2,71.6,89,29.75,10.0,NE,10.4,-,0.00,Rain,Light Rain,40,2013-09-22 01:25:00
8:37 PM,73.4,69.8,88,29.76,10.0,NNE,9.2,18.4,0.00,,Overcast,30,2013-09-22 01:37:00
8:53 PM,73.9,71.1,91,29.76,10.0,NNE,8.1,-,0.00,Rain,Light Rain,30,2013-09-22 01:53:00
9:29 PM,71.6,69.8,94,29.76,9.0,NNE,6.9,-,0.03,Rain,Light Rain,20,2013-09-22 02:29:00
9:53 PM,72.0,69.1,91,29.77,9.0,NNE,9.2,-,0.05,Rain,Light Rain,30,2013-09-22 02:53:00
10:06 PM,71.6,69.8,94,29.77,5.0,NNE,8.1,-,0.04,Rain,Rain,30,2013-09-22 03:06:00
10:53 PM,71.1,69.1,93,29.78,5.0,NNE,9.2,-,0.21,Rain,Rain,30,2013-09-22 03:53:00
11:26 PM,71.6,69.8,94,29.77,6.0,NNE,8.1,-,0.07,Rain,Rain,30,2013-09-22 04:26:00
11:53 PM,71.1,69.1,93,29.77,10.0,NNE,8.1,-,0.10,Rain,Light Rain,30,2013-09-22 04:53:00